This is the latest recevied weather packets stored in our database for station/object VK5TRM-14. If no packets are shown the sender has not sent any weather packets the latest 10 day(s).
| Time | Temp. | Humidity | Pressure | Rain* | Wind** | Luminosity | Snow |
|---|---|---|---|---|---|---|---|
| 1777955405 | 16.67° C | 70% | 1022.6 hPa | 0 mm | - | - | - |
| 1777954506 | 16.67° C | 70% | 1022.6 hPa | 0 mm | - | - | - |
| 1777953605 | 16.11° C | 70% | 1022.8 hPa | 0 mm | - | - | - |
| 1777952705 | 16.11° C | 70% | 1022.8 hPa | 0 mm | - | - | - |
| 1777951805 | 16.11° C | 70% | 1023 hPa | 0 mm | - | - | - |
| 1777950906 | 16.11° C | 70% | 1023 hPa | 0 mm | - | - | - |
| 1777950005 | 16.67° C | 70% | 1023.4 hPa | 0 mm | - | - | - |
| 1777949105 | 16.67° C | 70% | 1023.4 hPa | 0 mm | - | - | - |
| 1777948205 | 15.56° C | 74% | 1023.6 hPa | 0 mm | - | - | - |
| 1777947306 | 15.56° C | 74% | 1023.6 hPa | 0 mm | - | - | - |
| 1777946405 | 15.56° C | 73% | 1023.8 hPa | 0 mm | - | - | - |
| 1777945505 | 15.56° C | 73% | 1023.8 hPa | 0 mm | - | - | - |
| 1777944605 | 15.56° C | 73% | 1023.6 hPa | 0 mm | - | - | - |
| 1777943705 | 15.56° C | 73% | 1023.6 hPa | 0 mm | - | - | - |
| 1777942805 | 15.56° C | 75% | 1023.4 hPa | 0 mm | - | - | - |
| 1777941905 | 15.56° C | 75% | 1023.4 hPa | 0 mm | - | - | - |
| 1777941005 | 15° C | 81% | 1023.4 hPa | 0 mm | - | - | - |
| 1777940105 | 15° C | 81% | 1023.4 hPa | 0 mm | - | - | - |
| 1777939206 | 13.33° C | 86% | 1023.2 hPa | 0 mm | - | - | - |
| 1777938305 | 13.33° C | 86% | 1023.2 hPa | 0 mm | - | - | - |
| 1777937405 | 12.78° C | 92% | 1023.2 hPa | 0 mm | - | - | - |
| 1777936505 | 12.78° C | 92% | 1023.2 hPa | 0 mm | - | - | - |
| 1777935605 | 11.11° C | 96% | 1022.9 hPa | 0 mm | - | - | - |
| 1777934705 | 11.11° C | 96% | 1022.9 hPa | 0 mm | - | - | - |
| 1777933805 | 9.44° C | 97% | 1022.4 hPa | 0 mm | - | - | - |
* Rain since midnight (hover to see other rain measurements)
** Current wind speed in m/s (hover to see current wind gust speed)